createdAt,value
2023-03-12T00:01:15.727Z,100151.22
2023-03-12T00:03:44.230Z,100144.25
2023-03-12T00:06:12.479Z,100148.59
2023-03-12T00:08:41.809Z,100150.41
2023-03-12T00:11:12.041Z,100160.94
2023-03-12T00:13:40.987Z,100150.53
2023-03-12T00:16:11.928Z,100160.22
2023-03-12T00:18:40.391Z,100157.59
2023-03-12T00:21:09.456Z,100161.12
2023-03-12T00:23:38.201Z,100163.72
2023-03-12T00:26:09.395Z,100160.22
2023-03-12T00:28:38.375Z,100162.72
2023-03-12T00:31:15.692Z,100166.19
2023-03-12T00:33:44.657Z,100169.78
2023-03-12T00:36:13.389Z,100165.31
2023-03-12T00:38:41.545Z,100170.56
2023-03-12T00:41:11.496Z,100167.03
2023-03-12T00:43:39.892Z,100161.78
2023-03-12T00:46:07.944Z,100168.75
2023-03-12T00:48:36.133Z,100167.03
2023-03-12T00:51:04.398Z,100169.66
2023-03-12T00:53:32.440Z,100163.63
2023-03-12T00:56:00.815Z,100163.72
2023-03-12T00:58:30.492Z,100170.69
2023-03-12T01:00:58.713Z,100169.81
2023-03-12T01:03:27.344Z,100174.22
2023-03-12T01:05:55.591Z,100166.37
2023-03-12T01:08:25.362Z,100163.81
2023-03-12T01:10:54.331Z,100168.25
2023-03-12T01:13:23.507Z,100170.88
2023-03-12T01:15:52.986Z,100162.22
2023-03-12T01:18:21.246Z,100169.22
2023-03-12T01:20:49.395Z,100161.38
2023-03-12T01:23:17.996Z,100168.41
2023-03-12T01:25:47.493Z,100174.50
2023-03-12T01:28:15.481Z,100172.75
2023-03-12T01:30:43.530Z,100171.91
2023-03-12T01:33:13.413Z,100169.28
2023-03-12T01:35:42.570Z,100168.44
2023-03-12T01:38:14.881Z,100168.44
2023-03-12T01:40:44.925Z,100176.31
2023-03-12T01:43:27.704Z,100169.34
2023-03-12T01:46:24.111Z,100172.81
2023-03-12T01:48:58.092Z,100169.34
2023-03-12T01:51:29.245Z,100162.53
2023-03-12T01:54:03.310Z,100169.56
2023-03-12T01:56:36.056Z,100168.75
2023-03-12T01:59:11.608Z,100161.81
2023-03-12T02:01:42.063Z,100163.50
2023-03-12T02:04:13.245Z,100160.03
2023-03-12T02:06:49.671Z,100161.81
2023-03-12T02:09:20.524Z,100152.25
2023-03-12T02:11:50.448Z,100161.81
2023-03-12T02:14:20.577Z,100162.72
2023-03-12T02:16:49.128Z,100161.00
2023-03-12T02:19:24.633Z,100165.38
2023-03-12T02:21:53.430Z,100159.41
2023-03-12T02:24:29.560Z,100156.69
2023-03-12T02:27:00.686Z,100161.12
2023-03-12T02:29:33.051Z,100163.72
2023-03-12T02:32:06.965Z,100161.97
2023-03-12T02:34:36.039Z,100161.97
2023-03-12T02:37:04.692Z,100162.81
2023-03-12T02:39:32.735Z,100176.03
2023-03-12T02:42:02.293Z,100176.03
2023-03-12T02:44:33.360Z,100175.19
2023-03-12T02:47:02.931Z,100180.41
2023-03-12T02:49:33.588Z,100181.25
2023-03-12T02:52:02.389Z,100179.50
2023-03-12T02:54:31.476Z,100182.16
2023-03-12T02:57:00.184Z,100186.44
2023-03-12T02:59:30.720Z,100190.81
2023-03-12T03:02:01.699Z,100184.72
2023-03-12T03:04:31.380Z,100184.72
2023-03-12T03:06:59.565Z,100195.25
2023-03-12T03:09:27.978Z,100187.47
2023-03-12T03:11:56.284Z,100194.41
2023-03-12T03:14:24.836Z,100194.41
2023-03-12T03:16:54.653Z,100191.78
2023-03-12T03:19:24.117Z,100202.28
2023-03-12T03:21:52.356Z,100203.97
2023-03-12T03:24:21.081Z,100204.88
2023-03-12T03:26:49.507Z,100199.72
2023-03-12T03:29:18.056Z,100201.47
2023-03-12T03:31:46.164Z,100200.56
2023-03-12T03:34:16.259Z,100201.47
2023-03-12T03:36:44.340Z,100202.28
2023-03-12T03:39:12.671Z,100205.75
2023-03-12T03:41:40.967Z,100202.31
2023-03-12T03:44:09.046Z,100200.50
2023-03-12T03:46:37.387Z,100203.09
2023-03-12T03:49:06.844Z,100202.19
2023-03-12T03:51:36.460Z,100207.38
2023-03-12T03:54:05.415Z,100213.56
2023-03-12T03:56:33.630Z,100209.16
2023-03-12T03:59:03.066Z,100210.91
2023-03-12T04:01:32.254Z,100211.75
2023-03-12T04:04:01.583Z,100217.06
2023-03-12T04:06:30.566Z,100227.47
2023-03-12T04:09:01.208Z,100224.78
2023-03-12T04:11:30.317Z,100222.19
2023-03-12T04:13:59.252Z,100230.87
2023-03-12T04:16:28.005Z,100226.63
2023-03-12T04:18:56.429Z,100225.81
2023-03-12T04:21:24.708Z,100238.00
2023-03-12T04:23:53.315Z,100225.84
2023-03-12T04:26:24.563Z,100229.34
2023-03-12T04:28:52.975Z,100229.31
2023-03-12T04:31:21.168Z,100222.31
2023-03-12T04:33:50.325Z,100232.75
2023-03-12T04:36:18.629Z,100238.00
2023-03-12T04:38:47.158Z,100231.06
2023-03-12T04:41:17.273Z,100229.34
2023-03-12T04:43:47.808Z,100229.47
2023-03-12T04:46:16.606Z,100223.37
2023-03-12T04:48:44.870Z,100222.50
2023-03-12T04:51:13.981Z,100228.66
2023-03-12T04:53:42.456Z,100226.94
2023-03-12T04:56:11.000Z,100224.41
2023-03-12T04:58:39.182Z,100226.16
2023-03-12T05:01:08.873Z,100220.97
2023-03-12T05:03:38.861Z,100214.03
2023-03-12T05:06:07.294Z,100222.81
2023-03-12T05:08:36.117Z,100222.81
2023-03-12T05:11:04.298Z,100227.97
2023-03-12T05:13:32.316Z,100227.94
2023-03-12T05:16:00.840Z,100232.31
2023-03-12T05:18:30.676Z,100228.78
2023-03-12T05:21:00.298Z,100223.59
2023-03-12T05:23:28.939Z,100223.59
2023-03-12T05:25:58.332Z,100220.13
2023-03-12T05:28:28.586Z,100218.38
2023-03-12T05:30:59.198Z,100226.22
2023-03-12T05:33:28.636Z,100227.13
2023-03-12T05:35:58.549Z,100225.31
2023-03-12T05:38:27.130Z,100226.22
2023-03-12T05:40:57.449Z,100225.25
2023-03-12T05:43:26.876Z,100230.53
2023-03-12T05:46:00.022Z,100214.94
2023-03-12T05:48:28.595Z,100222.69
2023-03-12T05:50:59.118Z,100225.31
2023-03-12T05:53:27.718Z,100219.28
2023-03-12T05:55:55.659Z,100222.63
2023-03-12T05:58:24.024Z,100221.59
2023-03-12T06:00:52.518Z,100224.13
2023-03-12T06:03:20.788Z,100224.91
2023-03-12T06:05:48.932Z,100218.72
2023-03-12T06:08:20.434Z,100222.94
2023-03-12T06:10:51.259Z,100216.72
2023-03-12T06:13:19.513Z,100222.53
2023-03-12T06:15:47.777Z,100213.53
2023-03-12T06:18:17.240Z,100215.91
2023-03-12T06:20:46.654Z,100213.81
2023-03-12T06:23:14.791Z,100221.31
2023-03-12T06:25:47.021Z,100220.94
2023-03-12T06:28:15.027Z,100217.97
2023-03-12T06:30:46.354Z,100227.06
2023-03-12T06:33:14.394Z,100226.69
2023-03-12T06:35:42.661Z,100224.47
2023-03-12T06:38:11.331Z,100226.66
2023-03-12T06:40:39.525Z,100223.63
2023-03-12T06:43:12.234Z,100219.59
2023-03-12T06:45:40.592Z,100227.91
2023-03-12T06:48:08.786Z,100228.19
2023-03-12T06:50:37.896Z,100231.28
2023-03-12T06:53:06.251Z,100224.63
2023-03-12T06:55:34.303Z,100229.50
2023-03-12T06:58:03.994Z,100230.97
2023-03-12T07:00:34.832Z,100228.16
2023-03-12T07:03:02.921Z,100232.25
2023-03-12T07:05:31.206Z,100237.22
2023-03-12T07:07:59.723Z,100237.19
2023-03-12T07:10:29.528Z,100233.44
2023-03-12T07:12:58.544Z,100227.09
2023-03-12T07:15:26.951Z,100220.47
2023-03-12T07:17:56.923Z,100228.03
2023-03-12T07:20:25.044Z,100228.34
2023-03-12T07:22:53.655Z,100216.37
2023-03-12T07:25:21.875Z,100223.78
2023-03-12T07:27:50.630Z,100221.06
2023-03-12T07:30:19.727Z,100213.19
2023-03-12T07:32:47.850Z,100213.53
2023-03-12T07:35:17.458Z,100217.31
2023-03-12T07:37:45.990Z,100220.37
2023-03-12T07:40:14.612Z,100219.87
2023-03-12T07:42:45.430Z,100219.19
2023-03-12T07:45:14.055Z,100218.91
2023-03-12T07:47:42.286Z,100226.31
2023-03-12T07:50:11.742Z,100213.56
2023-03-12T07:52:41.389Z,100215.31
2023-03-12T07:55:11.228Z,100219.53
2023-03-12T07:57:39.988Z,100214.91
2023-03-12T08:00:10.467Z,100215.59
2023-03-12T08:02:40.080Z,100209.84
2023-03-12T08:05:09.017Z,100215.03
2023-03-12T08:07:37.320Z,100223.72
2023-03-12T08:10:09.748Z,100213.47
2023-03-12T08:12:38.449Z,100212.41
2023-03-12T08:15:08.383Z,100206.78
2023-03-12T08:17:36.576Z,100209.06
2023-03-12T08:20:05.871Z,100209.63
2023-03-12T08:22:33.760Z,100203.00
2023-03-12T08:25:01.641Z,100200.09
2023-03-12T08:27:31.471Z,100203.75
2023-03-12T08:29:59.342Z,100205.47
2023-03-12T08:32:27.639Z,100204.03
2023-03-12T08:34:55.942Z,100205.50
2023-03-12T08:37:24.135Z,100198.50
2023-03-12T08:39:52.064Z,100194.25
2023-03-12T08:42:20.299Z,100196.78
2023-03-12T08:44:49.597Z,100199.44
2023-03-12T08:47:17.601Z,100193.56
2023-03-12T08:49:46.058Z,100201.31
2023-03-12T08:52:14.014Z,100190.56
2023-03-12T08:54:42.030Z,100191.94
2023-03-12T08:57:10.667Z,100198.28
2023-03-12T08:59:38.902Z,100190.25
2023-03-12T09:02:08.474Z,100183.84
2023-03-12T09:04:36.676Z,100185.63
2023-03-12T09:07:04.784Z,100183.50
2023-03-12T09:09:33.941Z,100188.38
2023-03-12T09:12:02.165Z,100187.59
2023-03-12T09:17:20.207Z,100182.16
2023-03-12T09:19:48.376Z,100176.88
2023-03-12T09:22:17.253Z,100177.50
2023-03-12T09:24:45.952Z,100178.50
2023-03-12T09:27:13.824Z,100187.94
2023-03-12T09:29:58.722Z,100183.63
2023-03-12T09:32:29.715Z,100180.72
2023-03-12T09:34:57.713Z,100184.31
2023-03-12T09:37:26.249Z,100185.91
2023-03-12T09:39:55.185Z,100180.09
2023-03-12T09:42:26.287Z,100178.66
2023-03-12T09:44:59.155Z,100185.38
2023-03-12T09:47:31.627Z,100179.25
2023-03-12T09:50:06.470Z,100171.84
2023-03-12T09:52:40.502Z,100163.91
2023-03-12T09:55:14.957Z,100151.03
2023-03-12T09:57:44.355Z,100144.56
2023-03-12T10:00:15.524Z,100140.25
2023-03-12T10:03:06.666Z,100136.75
2023-03-12T10:05:39.089Z,100134.66
2023-03-12T10:08:24.729Z,100142.00
2023-03-12T10:10:56.077Z,100134.88
2023-03-12T10:13:42.053Z,100134.72
2023-03-12T10:16:22.069Z,100138.63
2023-03-12T10:19:06.154Z,100132.72
2023-03-12T10:21:40.369Z,100133.38
2023-03-12T10:24:25.061Z,100143.03
2023-03-12T10:26:56.732Z,100136.38
2023-03-12T10:29:29.600Z,100138.38
2023-03-12T10:32:01.792Z,100129.38
2023-03-12T10:34:37.580Z,100124.34
2023-03-12T10:37:15.094Z,100125.22
2023-03-12T10:39:43.508Z,100125.94
2023-03-12T10:42:17.151Z,100115.22
2023-03-12T10:44:48.153Z,100111.50
2023-03-12T10:47:29.057Z,100113.88
2023-03-12T10:50:14.013Z,100107.59
2023-03-12T10:52:42.921Z,100101.25
2023-03-12T10:55:13.859Z,100092.97
2023-03-12T10:57:43.073Z,100093.16
2023-03-12T11:00:20.829Z,100088.00
2023-03-12T11:02:59.170Z,100087.41
2023-03-12T11:05:31.351Z,100080.38
2023-03-12T11:08:01.990Z,100079.09
2023-03-12T11:10:43.194Z,100075.41
2023-03-12T11:13:27.831Z,100065.06
2023-03-12T11:15:58.193Z,100065.56
2023-03-12T11:18:29.697Z,100068.84
2023-03-12T11:21:14.333Z,100058.56
2023-03-12T11:23:44.168Z,100060.25
2023-03-12T11:26:16.979Z,100048.88
2023-03-12T11:28:48.133Z,100037.13
2023-03-12T11:31:22.770Z,100029.38
2023-03-12T11:33:52.867Z,100016.91
2023-03-12T11:36:36.413Z,100022.25
2023-03-12T11:39:15.148Z,100028.41
2023-03-12T11:42:01.002Z,100029.59
2023-03-12T11:44:38.729Z,100019.31
2023-03-12T11:47:20.528Z,100016.28
2023-03-12T11:50:04.978Z,100005.28
2023-03-12T11:52:48.031Z,100005.03
2023-03-12T11:55:23.375Z,99998.69
2023-03-12T11:58:09.158Z,99997.06
2023-03-12T12:00:47.952Z,99998.03
2023-03-12T12:03:40.627Z,99988.47
2023-03-12T12:06:14.015Z,99975.19
2023-03-12T12:08:57.476Z,99978.28
2023-03-12T12:11:35.453Z,99978.78
2023-03-12T12:14:14.122Z,99974.62
2023-03-12T12:16:59.563Z,99974.41
2023-03-12T12:19:38.711Z,99960.94
2023-03-12T12:22:26.479Z,99954.81
2023-03-12T12:25:17.717Z,99947.53
2023-03-12T12:27:54.449Z,99945.47
2023-03-12T12:30:30.506Z,99950.09
2023-03-12T12:33:15.558Z,99951.91
2023-03-12T12:35:44.362Z,99962.59
2023-03-12T12:38:16.031Z,99964.09
2023-03-12T12:40:50.236Z,99953.91
2023-03-12T12:43:28.100Z,99947.84
2023-03-12T12:46:00.363Z,99945.66
2023-03-12T12:48:34.966Z,99944.34
2023-03-12T12:51:08.294Z,99939.41
2023-03-12T12:53:43.216Z,99937.47
2023-03-12T12:56:20.421Z,99931.38
2023-03-12T12:59:10.394Z,99926.19
2023-03-12T13:01:39.853Z,99918.91
2023-03-12T13:04:13.172Z,99912.28
2023-03-12T13:06:59.661Z,99908.19
2023-03-12T13:09:43.396Z,99910.13
2023-03-12T13:12:21.661Z,99905.41
2023-03-12T13:14:50.757Z,99908.66
2023-03-12T13:17:33.391Z,99913.41
2023-03-12T13:20:17.681Z,99898.25
2023-03-12T13:23:10.620Z,99893.31
2023-03-12T13:25:55.080Z,99898.78
2023-03-12T13:28:42.019Z,99894.25
2023-03-12T13:31:37.854Z,99892.69
2023-03-12T13:34:46.505Z,99881.66
2023-03-12T13:37:57.804Z,99877.91
2023-03-12T13:40:36.230Z,99876.94
2023-03-12T13:43:12.490Z,99872.50
2023-03-12T13:46:01.544Z,99876.12
2023-03-12T13:48:29.796Z,99883.66
2023-03-12T13:51:00.708Z,99871.34
2023-03-12T13:53:34.616Z,99871.69
2023-03-12T13:56:06.736Z,99871.91
2023-03-12T13:58:42.569Z,99867.97
2023-03-12T14:01:18.620Z,99866.81
2023-03-12T14:03:54.323Z,99863.13
2023-03-12T14:06:24.715Z,99863.66
2023-03-12T14:09:05.103Z,99862.63
2023-03-12T14:11:42.260Z,99861.50
2023-03-12T14:14:49.949Z,99855.69
2023-03-12T14:17:21.317Z,99851.41
2023-03-12T14:19:56.388Z,99844.59
2023-03-12T14:22:25.566Z,99842.25
2023-03-12T14:25:00.501Z,99845.03
2023-03-12T14:27:31.702Z,99844.28
2023-03-12T14:30:08.385Z,99835.53
2023-03-12T14:32:41.383Z,99841.81
2023-03-12T14:35:20.380Z,99835.41
2023-03-12T14:37:55.733Z,99825.87
2023-03-12T14:40:27.279Z,99829.50
2023-03-12T14:42:56.655Z,99813.28
2023-03-12T14:45:25.921Z,99811.25
2023-03-12T14:47:58.231Z,99796.00
2023-03-12T14:50:28.747Z,99786.44
2023-03-12T14:53:11.171Z,99790.91
2023-03-12T14:55:39.409Z,99790.91
2023-03-12T14:58:16.357Z,99792.78
2023-03-12T15:00:46.881Z,99781.88
2023-03-12T15:03:17.823Z,99791.03
2023-03-12T15:05:47.915Z,99788.31
2023-03-12T15:08:18.011Z,99777.72
2023-03-12T15:10:49.743Z,99775.72
2023-03-12T15:13:20.603Z,99769.09
2023-03-12T15:15:51.188Z,99756.59
2023-03-12T15:18:25.486Z,99757.87
2023-03-12T15:20:55.448Z,99754.69
2023-03-12T15:23:24.809Z,99754.78
2023-03-12T15:26:11.245Z,99754.31
2023-03-12T15:28:39.906Z,99765.25
2023-03-12T15:31:11.832Z,99769.16
2023-03-12T15:33:42.635Z,99767.38
2023-03-12T15:36:24.880Z,99758.56
2023-03-12T15:38:56.013Z,99759.00
2023-03-12T15:41:27.771Z,99756.56
2023-03-12T15:43:58.412Z,99761.94
2023-03-12T15:46:28.163Z,99761.22
2023-03-12T15:49:00.381Z,99756.75
2023-03-12T15:51:31.700Z,99752.84
2023-03-12T15:54:01.710Z,99753.69
2023-03-12T15:56:32.214Z,99758.06
2023-03-12T15:59:05.731Z,99753.47
2023-03-12T16:01:46.086Z,99747.88
2023-03-12T16:04:15.760Z,99753.91
2023-03-12T16:06:47.001Z,99748.19
2023-03-12T16:09:19.927Z,99749.28
2023-03-12T16:11:48.811Z,99750.97
2023-03-12T16:14:20.018Z,99745.78
2023-03-12T16:16:48.336Z,99749.75
2023-03-12T16:19:20.297Z,99753.56
2023-03-12T16:21:49.279Z,99759.59
2023-03-12T16:24:17.969Z,99752.59
2023-03-12T16:26:50.084Z,99758.13
2023-03-12T16:29:20.213Z,99756.66
2023-03-12T16:31:52.139Z,99741.59
2023-03-12T16:34:21.875Z,99731.59
2023-03-12T16:36:49.850Z,99731.50
2023-03-12T16:39:18.994Z,99735.78
2023-03-12T16:41:47.667Z,99726.53
2023-03-12T16:44:21.223Z,99723.41
2023-03-12T16:46:50.899Z,99724.63
2023-03-12T16:49:21.274Z,99733.25
2023-03-12T16:51:51.258Z,99740.47
2023-03-12T16:54:19.548Z,99747.63
2023-03-12T16:56:51.012Z,99756.66
2023-03-12T16:59:26.597Z,99758.72
2023-03-12T17:01:55.398Z,99744.69
2023-03-12T17:04:24.055Z,99736.19
2023-03-12T17:06:53.383Z,99729.91
2023-03-12T17:09:21.370Z,99733.97
2023-03-12T17:11:52.595Z,99740.66
2023-03-12T17:14:23.193Z,99763.97
2023-03-12T17:16:51.852Z,99766.31
2023-03-12T17:19:19.861Z,99764.72
2023-03-12T17:21:48.840Z,99741.91
2023-03-12T17:24:18.628Z,99741.31
2023-03-12T17:26:47.668Z,99738.00
2023-03-12T17:29:15.669Z,99748.09
2023-03-12T17:31:43.855Z,99758.94
2023-03-12T17:34:11.748Z,99750.75
2023-03-12T17:36:40.336Z,99750.41
2023-03-12T17:39:08.619Z,99744.38
2023-03-12T17:41:37.865Z,99748.72
2023-03-12T17:44:07.124Z,99739.19
2023-03-12T17:46:39.153Z,99742.37
2023-03-12T17:49:08.931Z,99745.12
2023-03-12T17:51:37.123Z,99741.00
2023-03-12T17:54:05.313Z,99756.28
2023-03-12T17:56:33.257Z,99760.28
2023-03-12T17:59:02.861Z,99759.56
2023-03-12T18:01:30.780Z,99766.13
2023-03-12T18:03:59.082Z,99763.41
2023-03-12T18:06:27.057Z,99773.13
2023-03-12T18:08:54.974Z,99783.09
2023-03-12T18:11:23.220Z,99776.94
2023-03-12T18:13:51.311Z,99775.81
2023-03-12T18:16:20.809Z,99774.81
2023-03-12T18:18:51.511Z,99768.22
2023-03-12T18:21:20.349Z,99772.47
2023-03-12T18:23:48.563Z,99768.41
2023-03-12T18:26:16.638Z,99777.97
2023-03-12T18:28:44.563Z,99783.28
2023-03-12T18:31:12.859Z,99776.44
2023-03-12T18:33:44.701Z,99776.53
2023-03-12T18:36:12.987Z,99785.38
2023-03-12T18:38:41.053Z,99782.81
2023-03-12T18:41:12.365Z,99777.44
2023-03-12T18:43:41.848Z,99777.72
2023-03-12T18:46:11.423Z,99778.03
2023-03-12T18:48:40.881Z,99776.44
2023-03-12T18:51:11.317Z,99777.78
2023-03-12T18:53:41.648Z,99784.47
2023-03-12T18:56:09.902Z,99789.59
2023-03-12T18:58:37.935Z,99778.53
2023-03-12T19:01:06.175Z,99776.09
2023-03-12T19:03:36.472Z,99781.19
2023-03-12T19:06:06.687Z,99778.81
2023-03-12T19:08:38.050Z,99783.16
2023-03-12T19:11:07.038Z,99783.06
2023-03-12T19:13:35.633Z,99779.66
2023-03-12T19:16:08.315Z,99781.25
2023-03-12T19:18:37.955Z,99783.81
2023-03-12T19:21:08.365Z,99781.03
2023-03-12T19:23:38.094Z,99782.72
2023-03-12T19:26:07.598Z,99776.22
2023-03-12T19:28:36.011Z,99773.56
2023-03-12T19:31:06.493Z,99775.50
2023-03-12T19:33:34.635Z,99781.41
2023-03-12T19:36:05.191Z,99787.91
2023-03-12T19:38:33.785Z,99784.19
2023-03-12T19:41:03.069Z,99784.84
2023-03-12T19:43:31.356Z,99786.63
2023-03-12T19:45:59.721Z,99788.22
2023-03-12T19:48:27.834Z,99797.13
2023-03-12T19:50:56.042Z,99796.28
2023-03-12T19:53:24.806Z,99795.22
2023-03-12T19:55:53.102Z,99786.53
2023-03-12T19:58:22.645Z,99782.91
2023-03-12T20:00:50.828Z,99783.22
2023-03-12T20:03:20.700Z,99789.06
2023-03-12T20:05:50.469Z,99785.31
2023-03-12T20:08:20.845Z,99787.00
2023-03-12T20:10:49.510Z,99781.81
2023-03-12T20:13:18.405Z,99787.53
2023-03-12T20:15:48.511Z,99793.00
2023-03-12T20:18:17.228Z,99790.97
2023-03-12T20:20:45.146Z,99791.09
2023-03-12T20:23:13.406Z,99786.75
2023-03-12T20:25:42.199Z,99798.38
2023-03-12T20:28:11.308Z,99798.47
2023-03-12T20:30:41.291Z,99797.03
2023-03-12T20:33:10.688Z,99789.91
2023-03-12T20:35:39.697Z,99798.66
2023-03-12T20:38:07.979Z,99788.03
2023-03-12T20:40:36.127Z,99780.06
2023-03-12T20:43:04.879Z,99781.50
2023-03-12T20:45:34.542Z,99782.59
2023-03-12T20:48:03.206Z,99780.78
2023-03-12T20:50:32.572Z,99779.09
2023-03-12T20:53:00.756Z,99776.91
2023-03-12T20:55:28.894Z,99772.31
2023-03-12T20:57:56.933Z,99776.47
2023-03-12T21:00:25.327Z,99774.78
2023-03-12T21:02:53.461Z,99776.47
2023-03-12T21:05:23.806Z,99777.91
2023-03-12T21:07:58.190Z,99776.47
2023-03-12T21:10:26.485Z,99774.28
2023-03-12T21:12:54.680Z,99758.25
2023-03-12T21:15:22.837Z,99760.03
2023-03-12T21:17:50.822Z,99756.44
2023-03-12T21:20:19.553Z,99755.47
2023-03-12T21:22:47.613Z,99750.16
2023-03-12T21:25:17.264Z,99740.25
2023-03-12T21:27:51.020Z,99743.88
2023-03-12T21:30:20.334Z,99739.41
2023-03-12T21:32:48.954Z,99744.53
2023-03-12T21:35:17.489Z,99736.63
2023-03-12T21:37:45.417Z,99738.12
2023-03-12T21:40:14.921Z,99736.56
2023-03-12T21:42:44.561Z,99731.31
2023-03-12T21:45:13.038Z,99742.06
2023-03-12T21:47:42.162Z,99744.59
2023-03-12T21:50:11.783Z,99743.16
2023-03-12T21:52:42.939Z,99734.94
2023-03-12T21:55:12.270Z,99743.88
2023-03-12T21:57:40.243Z,99744.72
2023-03-12T22:00:12.900Z,99749.91
2023-03-12T22:02:41.921Z,99749.31
2023-03-12T22:05:10.468Z,99755.34
2023-03-12T22:07:38.761Z,99752.56
2023-03-12T22:10:11.831Z,99754.06
2023-03-12T22:12:42.448Z,99753.97
2023-03-12T22:15:12.877Z,99754.69
2023-03-12T22:17:40.952Z,99758.19
2023-03-12T22:20:10.602Z,99751.78
2023-03-12T22:22:38.880Z,99756.00
2023-03-12T22:25:07.441Z,99751.41
2023-03-12T22:27:35.487Z,99746.09
2023-03-12T22:30:04.164Z,99753.84
2023-03-12T22:32:33.680Z,99748.41
2023-03-12T22:35:01.870Z,99737.78
2023-03-12T22:37:30.076Z,99734.16
2023-03-12T22:40:01.516Z,99731.63
2023-03-12T22:42:29.726Z,99728.00
2023-03-12T22:44:57.662Z,99729.69
2023-03-12T22:47:25.852Z,99727.28
2023-03-12T22:49:58.463Z,99711.22
2023-03-12T22:52:26.671Z,99705.19
2023-03-12T22:54:54.903Z,99707.97
2023-03-12T22:57:22.873Z,99703.69
2023-03-12T22:59:50.757Z,99707.72
2023-03-12T23:02:19.368Z,99718.59
2023-03-12T23:04:47.446Z,99712.19
2023-03-12T23:07:16.876Z,99710.38
2023-03-12T23:09:45.815Z,99708.69
2023-03-12T23:12:14.085Z,99718.22
2023-03-12T23:14:42.134Z,99726.06
2023-03-12T23:17:10.385Z,99723.53
2023-03-12T23:19:38.528Z,99717.63
2023-03-12T23:22:07.803Z,99719.91
2023-03-12T23:24:37.570Z,99721.84
2023-03-12T23:27:05.949Z,99720.28
2023-03-12T23:29:35.701Z,99720.28
2023-03-12T23:32:04.609Z,99712.53
2023-03-12T23:34:34.609Z,99715.56
2023-03-12T23:37:02.752Z,99716.41
2023-03-12T23:39:32.798Z,99699.34
2023-03-12T23:42:04.801Z,99699.00
2023-03-12T23:44:33.331Z,99697.28
2023-03-12T23:47:01.447Z,99700.91
2023-03-12T23:49:29.367Z,99695.72
2023-03-12T23:51:57.555Z,99693.91
2023-03-12T23:54:25.552Z,99698.47
2023-03-12T23:56:53.618Z,99700.81
2023-03-12T23:59:23.255Z,99702.72
